Houston's Hourly Summary for Thursday, March 16, 2017
Hour Temp
(f)
RH
(%)
Solar Rad.
(MJ/m2)
Rainfall
(in)
Wind
(mph)
3/16/2017 12:00 AM 58 82 0 0 5.4
3/16/2017 1:00 AM 59 83 0 0 4.78
3/16/2017 2:00 AM 59 86 0 0 4.56
3/16/2017 3:00 AM 60 84 0 0 4.78
3/16/2017 4:00 AM 61 84 0 0 5.27
3/16/2017 5:00 AM 61 86 0 0 4.42
3/16/2017 6:00 AM 62 86 0 0 4.13
3/16/2017 7:00 AM 62 86 0 0 3.8
3/16/2017 8:00 AM 63 87 0.01 0 4.48
3/16/2017 9:00 AM 63 87 0.15 0 7.14
3/16/2017 10:00 AM 65 81 0.76 0 8.57
3/16/2017 11:00 AM 68 73 1.61 0 9.04
3/16/2017 12:00 PM 71 66 1.71 0 7.56
3/16/2017 1:00 PM 72 64 1.15 0 6.41
3/16/2017 2:00 PM 73 63 1.49 0 7.83
3/16/2017 3:00 PM 73 65 1.36 0 9.09
3/16/2017 4:00 PM 73 66 1.42 0 9.78
3/16/2017 5:00 PM 72 68 1.12 0 9.54
3/16/2017 6:00 PM 72 69 0.66 0 10.09
3/16/2017 7:00 PM 70 72 0.29 0 8.61
3/16/2017 8:00 PM 69 78 0.03 0 6.92
3/16/2017 9:00 PM 67 83 0 0 5.67
3/16/2017 10:00 PM 67 86 0 0 5.29
3/16/2017 11:00 PM 67 90 0 0 6.38
Data Summary 66 78 11.76 0.00 6.65